sensor_id;sensor_type;location;lat;lon;timestamp;P1;durP1;ratioP1;P2;durP2;ratioP2
20298;SDS011;10308;42.688;23.256;2023-12-22T00:00:35;49.95;;;44.75;;
20298;SDS011;10308;42.688;23.256;2023-12-22T00:03:04;48.20;;;43.25;;
20298;SDS011;10308;42.688;23.256;2023-12-22T00:05:31;48.63;;;43.90;;
20298;SDS011;10308;42.688;23.256;2023-12-22T00:08:06;51.10;;;45.75;;
20298;SDS011;10308;42.688;23.256;2023-12-22T00:10:34;44.65;;;40.15;;
20298;SDS011;10308;42.688;23.256;2023-12-22T00:13:01;44.28;;;39.83;;
20298;SDS011;10308;42.688;23.256;2023-12-22T00:15:28;40.10;;;36.03;;
20298;SDS011;10308;42.688;23.256;2023-12-22T00:17:59;41.13;;;36.78;;
20298;SDS011;10308;42.688;23.256;2023-12-22T00:20:25;39.45;;;35.30;;
20298;SDS011;10308;42.688;23.256;2023-12-22T00:22:54;35.95;;;32.45;;
20298;SDS011;10308;42.688;23.256;2023-12-22T00:25:25;34.85;;;31.23;;
20298;SDS011;10308;42.688;23.256;2023-12-22T00:27:54;34.08;;;30.67;;
20298;SDS011;10308;42.688;23.256;2023-12-22T00:30:24;34.13;;;30.58;;
20298;SDS011;10308;42.688;23.256;2023-12-22T00:32:54;33.85;;;30.38;;
20298;SDS011;10308;42.688;23.256;2023-12-22T00:35:22;32.03;;;28.90;;
20298;SDS011;10308;42.688;23.256;2023-12-22T00:37:49;34.90;;;31.30;;
20298;SDS011;10308;42.688;23.256;2023-12-22T00:40:20;33.80;;;30.40;;
20298;SDS011;10308;42.688;23.256;2023-12-22T00:42:53;35.25;;;31.65;;
20298;SDS011;10308;42.688;23.256;2023-12-22T00:45:23;33.72;;;30.30;;
20298;SDS011;10308;42.688;23.256;2023-12-22T00:47:50;32.70;;;29.50;;
20298;SDS011;10308;42.688;23.256;2023-12-22T00:50:20;31.77;;;28.60;;
20298;SDS011;10308;42.688;23.256;2023-12-22T00:52:49;27.30;;;24.50;;
20298;SDS011;10308;42.688;23.256;2023-12-22T00:55:16;26.10;;;23.60;;
20298;SDS011;10308;42.688;23.256;2023-12-22T00:57:44;25.33;;;22.77;;
20298;SDS011;10308;42.688;23.256;2023-12-22T01:00:14;23.67;;;21.35;;
20298;SDS011;10308;42.688;23.256;2023-12-22T01:02:44;23.10;;;20.90;;
20298;SDS011;10308;42.688;23.256;2023-12-22T01:05:11;22.45;;;20.30;;
20298;SDS011;10308;42.688;23.256;2023-12-22T01:07:39;21.00;;;19.02;;
20298;SDS011;10308;42.688;23.256;2023-12-22T01:10:09;21.77;;;19.67;;
20298;SDS011;10308;42.688;23.256;2023-12-22T01:12:37;21.73;;;19.52;;
20298;SDS011;10308;42.688;23.256;2023-12-22T01:15:05;20.25;;;18.35;;
20298;SDS011;10308;42.688;23.256;2023-12-22T01:17:38;21.35;;;19.25;;
20298;SDS011;10308;42.688;23.256;2023-12-22T01:20:06;20.10;;;18.17;;
20298;SDS011;10308;42.688;23.256;2023-12-22T01:22:33;21.50;;;19.42;;
20298;SDS011;10308;42.688;23.256;2023-12-22T01:25:04;21.20;;;19.10;;
20298;SDS011;10308;42.688;23.256;2023-12-22T01:27:35;20.17;;;18.30;;
20298;SDS011;10308;42.688;23.256;2023-12-22T01:30:06;19.27;;;17.38;;
20298;SDS011;10308;42.688;23.256;2023-12-22T01:32:36;20.48;;;18.48;;
20298;SDS011;10308;42.688;23.256;2023-12-22T01:35:03;18.88;;;16.98;;
20298;SDS011;10308;42.688;23.256;2023-12-22T01:37:36;19.10;;;17.30;;
20298;SDS011;10308;42.688;23.256;2023-12-22T01:40:03;19.00;;;17.20;;
20298;SDS011;10308;42.688;23.256;2023-12-22T01:42:33;19.05;;;17.30;;
20298;SDS011;10308;42.688;23.256;2023-12-22T01:45:00;18.17;;;16.27;;
20298;SDS011;10308;42.688;23.256;2023-12-22T01:47:26;17.98;;;16.20;;
20298;SDS011;10308;42.688;23.256;2023-12-22T01:50:00;18.63;;;16.92;;
20298;SDS011;10308;42.688;23.256;2023-12-22T01:52:29;18.17;;;16.50;;
20298;SDS011;10308;42.688;23.256;2023-12-22T01:54:56;17.92;;;16.33;;
20298;SDS011;10308;42.688;23.256;2023-12-22T01:57:23;18.73;;;16.98;;
20298;SDS011;10308;42.688;23.256;2023-12-22T01:59:51;18.55;;;16.67;;
20298;SDS011;10308;42.688;23.256;2023-12-22T02:02:18;17.20;;;15.50;;
20298;SDS011;10308;42.688;23.256;2023-12-22T02:04:45;18.15;;;16.45;;
20298;SDS011;10308;42.688;23.256;2023-12-22T02:07:16;18.77;;;16.98;;
20298;SDS011;10308;42.688;23.256;2023-12-22T02:09:45;18.27;;;16.55;;
20298;SDS011;10308;42.688;23.256;2023-12-22T02:12:12;17.63;;;16.00;;
20298;SDS011;10308;42.688;23.256;2023-12-22T02:14:39;17.95;;;16.15;;
20298;SDS011;10308;42.688;23.256;2023-12-22T02:17:11;17.63;;;15.95;;
20298;SDS011;10308;42.688;23.256;2023-12-22T02:19:48;18.10;;;16.40;;
20298;SDS011;10308;42.688;23.256;2023-12-22T02:22:18;17.48;;;15.88;;
20298;SDS011;10308;42.688;23.256;2023-12-22T02:24:54;16.77;;;15.18;;
20298;SDS011;10308;42.688;23.256;2023-12-22T02:27:28;17.70;;;16.10;;
20298;SDS011;10308;42.688;23.256;2023-12-22T02:30:05;18.63;;;16.73;;
20298;SDS011;10308;42.688;23.256;2023-12-22T02:32:35;19.10;;;17.20;;
20298;SDS011;10308;42.688;23.256;2023-12-22T02:35:07;18.42;;;16.75;;
20298;SDS011;10308;42.688;23.256;2023-12-22T02:37:36;18.88;;;16.98;;
20298;SDS011;10308;42.688;23.256;2023-12-22T02:40:07;17.58;;;15.88;;
20298;SDS011;10308;42.688;23.256;2023-12-22T02:42:38;18.30;;;16.50;;
20298;SDS011;10308;42.688;23.256;2023-12-22T02:45:12;18.63;;;16.95;;
20298;SDS011;10308;42.688;23.256;2023-12-22T02:47:44;18.55;;;16.77;;
20298;SDS011;10308;42.688;23.256;2023-12-22T02:50:12;19.08;;;17.27;;
20298;SDS011;10308;42.688;23.256;2023-12-22T02:52:41;18.95;;;17.08;;
20298;SDS011;10308;42.688;23.256;2023-12-22T02:55:09;20.08;;;18.08;;
20298;SDS011;10308;42.688;23.256;2023-12-22T02:57:36;19.45;;;17.75;;
20298;SDS011;10308;42.688;23.256;2023-12-22T03:00:06;20.27;;;18.27;;
20298;SDS011;10308;42.688;23.256;2023-12-22T03:02:34;19.73;;;17.60;;
20298;SDS011;10308;42.688;23.256;2023-12-22T03:05:04;19.77;;;17.77;;
20298;SDS011;10308;42.688;23.256;2023-12-22T03:07:35;18.00;;;16.17;;
20298;SDS011;10308;42.688;23.256;2023-12-22T03:10:02;18.40;;;16.67;;
20298;SDS011;10308;42.688;23.256;2023-12-22T03:12:33;18.38;;;16.58;;
20298;SDS011;10308;42.688;23.256;2023-12-22T03:15:02;19.63;;;17.70;;
20298;SDS011;10308;42.688;23.256;2023-12-22T03:17:30;20.73;;;18.73;;
20298;SDS011;10308;42.688;23.256;2023-12-22T03:20:00;22.60;;;20.27;;
20298;SDS011;10308;42.688;23.256;2023-12-22T03:22:30;25.85;;;22.60;;
20298;SDS011;10308;42.688;23.256;2023-12-22T03:24:57;25.38;;;22.70;;
20298;SDS011;10308;42.688;23.256;2023-12-22T03:27:24;24.85;;;22.25;;
20298;SDS011;10308;42.688;23.256;2023-12-22T03:29:53;23.77;;;21.27;;
20298;SDS011;10308;42.688;23.256;2023-12-22T03:32:22;23.08;;;20.67;;
20298;SDS011;10308;42.688;23.256;2023-12-22T03:34:49;25.65;;;22.83;;
20298;SDS011;10308;42.688;23.256;2023-12-22T03:37:16;24.83;;;22.23;;
20298;SDS011;10308;42.688;23.256;2023-12-22T03:39:44;23.77;;;21.38;;
20298;SDS011;10308;42.688;23.256;2023-12-22T03:42:11;23.65;;;21.25;;
20298;SDS011;10308;42.688;23.256;2023-12-22T03:44:40;23.50;;;21.20;;
20298;SDS011;10308;42.688;23.256;2023-12-22T03:47:09;24.27;;;21.85;;
20298;SDS011;10308;42.688;23.256;2023-12-22T03:49:41;22.23;;;20.08;;
20298;SDS011;10308;42.688;23.256;2023-12-22T03:52:08;22.10;;;19.90;;
20298;SDS011;10308;42.688;23.256;2023-12-22T03:54:37;22.02;;;19.92;;
20298;SDS011;10308;42.688;23.256;2023-12-22T03:57:04;23.67;;;21.17;;
20298;SDS011;10308;42.688;23.256;2023-12-22T03:59:32;22.33;;;20.02;;
20298;SDS011;10308;42.688;23.256;2023-12-22T04:02:01;21.80;;;19.63;;
20298;SDS011;10308;42.688;23.256;2023-12-22T04:04:36;23.17;;;20.80;;
20298;SDS011;10308;42.688;23.256;2023-12-22T04:07:04;20.80;;;18.85;;
20298;SDS011;10308;42.688;23.256;2023-12-22T04:09:31;20.67;;;18.67;;
20298;SDS011;10308;42.688;23.256;2023-12-22T04:11:58;20.70;;;18.80;;
20298;SDS011;10308;42.688;23.256;2023-12-22T04:14:26;20.75;;;18.75;;
20298;SDS011;10308;42.688;23.256;2023-12-22T04:16:53;20.35;;;18.40;;
20298;SDS011;10308;42.688;23.256;2023-12-22T04:19:23;20.65;;;18.65;;
20298;SDS011;10308;42.688;23.256;2023-12-22T04:21:54;19.65;;;17.60;;
20298;SDS011;10308;42.688;23.256;2023-12-22T04:24:22;19.20;;;17.30;;
20298;SDS011;10308;42.688;23.256;2023-12-22T04:26:50;20.63;;;18.52;;
20298;SDS011;10308;42.688;23.256;2023-12-22T04:29:20;20.13;;;18.15;;
20298;SDS011;10308;42.688;23.256;2023-12-22T04:31:47;19.05;;;17.25;;
20298;SDS011;10308;42.688;23.256;2023-12-22T04:34:16;19.52;;;17.52;;
20298;SDS011;10308;42.688;23.256;2023-12-22T04:36:43;18.45;;;16.58;;
20298;SDS011;10308;42.688;23.256;2023-12-22T04:39:14;18.17;;;16.58;;
20298;SDS011;10308;42.688;23.256;2023-12-22T04:41:41;18.40;;;16.67;;
20298;SDS011;10308;42.688;23.256;2023-12-22T04:44:11;17.88;;;16.15;;
20298;SDS011;10308;42.688;23.256;2023-12-22T04:46:40;18.73;;;17.02;;
20298;SDS011;10308;42.688;23.256;2023-12-22T04:49:08;29.80;;;26.58;;
20298;SDS011;10308;42.688;23.256;2023-12-22T04:51:38;41.42;;;33.25;;
20298;SDS011;10308;42.688;23.256;2023-12-22T04:54:05;43.28;;;33.42;;
20298;SDS011;10308;42.688;23.256;2023-12-22T04:56:33;41.55;;;31.13;;
20298;SDS011;10308;42.688;23.256;2023-12-22T04:59:02;29.33;;;26.25;;
20298;SDS011;10308;42.688;23.256;2023-12-22T05:01:30;29.50;;;26.27;;
20298;SDS011;10308;42.688;23.256;2023-12-22T05:03:57;24.52;;;22.10;;
20298;SDS011;10308;42.688;23.256;2023-12-22T05:06:27;23.20;;;20.83;;
20298;SDS011;10308;42.688;23.256;2023-12-22T05:08:54;21.55;;;19.27;;
20298;SDS011;10308;42.688;23.256;2023-12-22T05:11:23;20.05;;;18.17;;
20298;SDS011;10308;42.688;23.256;2023-12-22T05:13:51;19.63;;;17.63;;
20298;SDS011;10308;42.688;23.256;2023-12-22T05:16:19;23.48;;;21.20;;
20298;SDS011;10308;42.688;23.256;2023-12-22T05:18:47;23.23;;;20.92;;
20298;SDS011;10308;42.688;23.256;2023-12-22T05:21:16;25.80;;;23.20;;
20298;SDS011;10308;42.688;23.256;2023-12-22T05:23:47;20.70;;;18.70;;
20298;SDS011;10308;42.688;23.256;2023-12-22T05:26:17;26.02;;;23.25;;
20298;SDS011;10308;42.688;23.256;2023-12-22T05:28:44;12.07;;;10.82;;
20298;SDS011;10308;42.688;23.256;2023-12-22T05:31:17;5.97;;;5.47;;
20298;SDS011;10308;42.688;23.256;2023-12-22T05:33:47;3.55;;;3.35;;
20298;SDS011;10308;42.688;23.256;2023-12-22T05:36:16;3.00;;;2.80;;
20298;SDS011;10308;42.688;23.256;2023-12-22T05:38:43;3.08;;;2.88;;
20298;SDS011;10308;42.688;23.256;2023-12-22T05:41:10;2.60;;;2.40;;
20298;SDS011;10308;42.688;23.256;2023-12-22T05:43:37;2.60;;;2.40;;
20298;SDS011;10308;42.688;23.256;2023-12-22T05:46:05;2.50;;;2.30;;
20298;SDS011;10308;42.688;23.256;2023-12-22T05:48:37;2.42;;;2.00;;
20298;SDS011;10308;42.688;23.256;2023-12-22T05:51:05;2.50;;;2.40;;
20298;SDS011;10308;42.688;23.256;2023-12-22T05:53:38;2.42;;;2.22;;
20298;SDS011;10308;42.688;23.256;2023-12-22T05:56:05;2.00;;;1.90;;
20298;SDS011;10308;42.688;23.256;2023-12-22T05:58:34;2.38;;;2.17;;
20298;SDS011;10308;42.688;23.256;2023-12-22T06:01:02;2.40;;;2.20;;
20298;SDS011;10308;42.688;23.256;2023-12-22T06:03:31;2.38;;;2.28;;
20298;SDS011;10308;42.688;23.256;2023-12-22T06:06:00;2.75;;;2.55;;
20298;SDS011;10308;42.688;23.256;2023-12-22T06:08:28;2.50;;;2.30;;
20298;SDS011;10308;42.688;23.256;2023-12-22T06:10:55;2.40;;;2.30;;
20298;SDS011;10308;42.688;23.256;2023-12-22T06:13:22;2.88;;;2.67;;
20298;SDS011;10308;42.688;23.256;2023-12-22T06:15:50;3.00;;;2.80;;
20298;SDS011;10308;42.688;23.256;2023-12-22T06:18:18;3.10;;;2.80;;
20298;SDS011;10308;42.688;23.256;2023-12-22T06:20:47;2.80;;;2.60;;
20298;SDS011;10308;42.688;23.256;2023-12-22T06:23:20;7.80;;;7.07;;
20298;SDS011;10308;42.688;23.256;2023-12-22T06:25:50;15.88;;;14.35;;
20298;SDS011;10308;42.688;23.256;2023-12-22T06:28:19;15.05;;;13.55;;
20298;SDS011;10308;42.688;23.256;2023-12-22T06:30:49;15.45;;;14.05;;
20298;SDS011;10308;42.688;23.256;2023-12-22T06:33:18;17.08;;;15.38;;
20298;SDS011;10308;42.688;23.256;2023-12-22T06:35:44;17.73;;;16.02;;
20298;SDS011;10308;42.688;23.256;2023-12-22T06:38:13;17.77;;;16.02;;
20298;SDS011;10308;42.688;23.256;2023-12-22T06:40:42;15.82;;;14.23;;
20298;SDS011;10308;42.688;23.256;2023-12-22T06:43:12;15.00;;;13.63;;
20298;SDS011;10308;42.688;23.256;2023-12-22T06:45:41;14.70;;;13.23;;
20298;SDS011;10308;42.688;23.256;2023-12-22T06:48:09;15.15;;;13.77;;
20298;SDS011;10308;42.688;23.256;2023-12-22T06:50:36;14.50;;;13.10;;
20298;SDS011;10308;42.688;23.256;2023-12-22T06:53:04;14.90;;;13.45;;
20298;SDS011;10308;42.688;23.256;2023-12-22T06:55:32;16.02;;;14.52;;
20298;SDS011;10308;42.688;23.256;2023-12-22T06:58:01;14.75;;;13.45;;
20298;SDS011;10308;42.688;23.256;2023-12-22T07:00:29;14.40;;;13.07;;
20298;SDS011;10308;42.688;23.256;2023-12-22T07:02:58;15.80;;;14.40;;
20298;SDS011;10308;42.688;23.256;2023-12-22T07:05:33;14.07;;;12.73;;
20298;SDS011;10308;42.688;23.256;2023-12-22T07:08:06;13.93;;;12.68;;
20298;SDS011;10308;42.688;23.256;2023-12-22T07:10:34;14.25;;;12.75;;
20298;SDS011;10308;42.688;23.256;2023-12-22T07:13:05;14.13;;;12.73;;
20298;SDS011;10308;42.688;23.256;2023-12-22T07:15:35;15.30;;;13.80;;
20298;SDS011;10308;42.688;23.256;2023-12-22T07:18:04;16.17;;;14.77;;
20298;SDS011;10308;42.688;23.256;2023-12-22T07:20:37;15.52;;;14.02;;
20298;SDS011;10308;42.688;23.256;2023-12-22T07:23:04;15.95;;;14.45;;
20298;SDS011;10308;42.688;23.256;2023-12-22T07:25:34;25.30;;;22.77;;
20298;SDS011;10308;42.688;23.256;2023-12-22T07:28:06;25.55;;;22.95;;
20298;SDS011;10308;42.688;23.256;2023-12-22T07:30:36;19.80;;;18.00;;
20298;SDS011;10308;42.688;23.256;2023-12-22T07:33:04;18.67;;;16.95;;
20298;SDS011;10308;42.688;23.256;2023-12-22T07:35:32;16.48;;;14.88;;
20298;SDS011;10308;42.688;23.256;2023-12-22T07:38:00;17.40;;;15.80;;
20298;SDS011;10308;42.688;23.256;2023-12-22T07:40:28;17.75;;;16.05;;
20298;SDS011;10308;42.688;23.256;2023-12-22T07:43:00;17.70;;;16.10;;
20298;SDS011;10308;42.688;23.256;2023-12-22T07:45:33;17.35;;;15.75;;
20298;SDS011;10308;42.688;23.256;2023-12-22T07:48:00;17.15;;;15.65;;
20298;SDS011;10308;42.688;23.256;2023-12-22T07:50:29;17.58;;;15.98;;
20298;SDS011;10308;42.688;23.256;2023-12-22T07:52:59;18.02;;;16.50;;
20298;SDS011;10308;42.688;23.256;2023-12-22T07:55:26;17.90;;;16.20;;
20298;SDS011;10308;42.688;23.256;2023-12-22T07:57:54;18.73;;;16.98;;
20298;SDS011;10308;42.688;23.256;2023-12-22T08:00:24;16.88;;;15.38;;
20298;SDS011;10308;42.688;23.256;2023-12-22T08:02:52;16.90;;;15.50;;
20298;SDS011;10308;42.688;23.256;2023-12-22T08:05:19;17.17;;;15.50;;
20298;SDS011;10308;42.688;23.256;2023-12-22T08:07:47;16.90;;;15.25;;
20298;SDS011;10308;42.688;23.256;2023-12-22T08:10:17;15.85;;;14.32;;
20298;SDS011;10308;42.688;23.256;2023-12-22T08:12:44;15.23;;;13.65;;
20298;SDS011;10308;42.688;23.256;2023-12-22T08:15:12;14.75;;;13.45;;
20298;SDS011;10308;42.688;23.256;2023-12-22T08:17:45;17.27;;;15.73;;
20298;SDS011;10308;42.688;23.256;2023-12-22T08:20:19;19.58;;;17.58;;
20298;SDS011;10308;42.688;23.256;2023-12-22T08:22:51;18.90;;;17.17;;
20298;SDS011;10308;42.688;23.256;2023-12-22T08:25:21;17.58;;;15.98;;
20298;SDS011;10308;42.688;23.256;2023-12-22T08:27:51;17.90;;;16.10;;
20298;SDS011;10308;42.688;23.256;2023-12-22T08:30:19;18.67;;;16.77;;
20298;SDS011;10308;42.688;23.256;2023-12-22T08:32:51;18.40;;;16.70;;
20298;SDS011;10308;42.688;23.256;2023-12-22T08:35:24;18.25;;;16.45;;
20298;SDS011;10308;42.688;23.256;2023-12-22T08:37:58;16.90;;;15.40;;
20298;SDS011;10308;42.688;23.256;2023-12-22T08:40:28;18.33;;;16.63;;
20298;SDS011;10308;42.688;23.256;2023-12-22T08:42:56;17.20;;;15.55;;
20298;SDS011;10308;42.688;23.256;2023-12-22T08:45:26;17.70;;;16.10;;
20298;SDS011;10308;42.688;23.256;2023-12-22T08:47:56;18.02;;;16.50;;
20298;SDS011;10308;42.688;23.256;2023-12-22T08:50:30;20.30;;;18.17;;
20298;SDS011;10308;42.688;23.256;2023-12-22T08:52:58;19.35;;;17.67;;
20298;SDS011;10308;42.688;23.256;2023-12-22T08:55:26;21.15;;;18.98;;
20298;SDS011;10308;42.688;23.256;2023-12-22T08:57:55;26.60;;;24.10;;
20298;SDS011;10308;42.688;23.256;2023-12-22T09:00:25;33.40;;;30.30;;
20298;SDS011;10308;42.688;23.256;2023-12-22T09:02:53;34.13;;;31.08;;
20298;SDS011;10308;42.688;23.256;2023-12-22T09:05:24;39.92;;;36.38;;
20298;SDS011;10308;42.688;23.256;2023-12-22T09:07:52;38.70;;;35.10;;
20298;SDS011;10308;42.688;23.256;2023-12-22T09:10:21;39.45;;;35.67;;
20298;SDS011;10308;42.688;23.256;2023-12-22T09:12:51;33.58;;;30.60;;
20298;SDS011;10308;42.688;23.256;2023-12-22T09:15:19;34.15;;;30.95;;
20298;SDS011;10308;42.688;23.256;2023-12-22T09:17:49;33.38;;;30.33;;
20298;SDS011;10308;42.688;23.256;2023-12-22T09:20:21;30.25;;;27.45;;
20298;SDS011;10308;42.688;23.256;2023-12-22T09:22:51;27.27;;;24.73;;
20298;SDS011;10308;42.688;23.256;2023-12-22T09:25:18;21.70;;;19.63;;
20298;SDS011;10308;42.688;23.256;2023-12-22T09:27:46;10.82;;;9.80;;
20298;SDS011;10308;42.688;23.256;2023-12-22T09:30:13;9.38;;;8.50;;
20298;SDS011;10308;42.688;23.256;2023-12-22T09:32:46;8.63;;;7.82;;
20298;SDS011;10308;42.688;23.256;2023-12-22T09:35:14;8.80;;;8.00;;
20298;SDS011;10308;42.688;23.256;2023-12-22T09:37:44;9.52;;;8.32;;
20298;SDS011;10308;42.688;23.256;2023-12-22T09:40:14;9.63;;;8.35;;
20298;SDS011;10308;42.688;23.256;2023-12-22T09:42:43;8.88;;;7.57;;
20298;SDS011;10308;42.688;23.256;2023-12-22T09:45:11;8.77;;;7.85;;
20298;SDS011;10308;42.688;23.256;2023-12-22T09:47:41;5.75;;;5.25;;
20298;SDS011;10308;42.688;23.256;2023-12-22T09:50:12;4.95;;;4.43;;
20298;SDS011;10308;42.688;23.256;2023-12-22T09:52:42;3.97;;;3.65;;
20298;SDS011;10308;42.688;23.256;2023-12-22T09:55:15;5.10;;;4.70;;
20298;SDS011;10308;42.688;23.256;2023-12-22T09:57:42;4.43;;;4.10;;
20298;SDS011;10308;42.688;23.256;2023-12-22T10:00:10;3.95;;;3.58;;
20298;SDS011;10308;42.688;23.256;2023-12-22T10:02:41;3.67;;;3.38;;
20298;SDS011;10308;42.688;23.256;2023-12-22T10:05:12;4.25;;;3.88;;
20298;SDS011;10308;42.688;23.256;2023-12-22T10:07:44;3.78;;;3.47;;
20298;SDS011;10308;42.688;23.256;2023-12-22T10:10:14;4.70;;;4.22;;
20298;SDS011;10308;42.688;23.256;2023-12-22T10:12:41;4.13;;;3.83;;
20298;SDS011;10308;42.688;23.256;2023-12-22T10:15:20;4.78;;;4.38;;
20298;SDS011;10308;42.688;23.256;2023-12-22T10:17:50;4.05;;;3.75;;
20298;SDS011;10308;42.688;23.256;2023-12-22T10:20:18;4.85;;;4.45;;
20298;SDS011;10308;42.688;23.256;2023-12-22T10:22:47;4.78;;;4.38;;
20298;SDS011;10308;42.688;23.256;2023-12-22T10:25:18;5.45;;;4.70;;
20298;SDS011;10308;42.688;23.256;2023-12-22T10:27:51;5.35;;;4.95;;
20298;SDS011;10308;42.688;23.256;2023-12-22T10:30:21;6.25;;;5.53;;
20298;SDS011;10308;42.688;23.256;2023-12-22T10:32:49;6.93;;;6.20;;
20298;SDS011;10308;42.688;23.256;2023-12-22T10:35:18;7.50;;;6.80;;
20298;SDS011;10308;42.688;23.256;2023-12-22T10:37:47;6.05;;;5.45;;
20298;SDS011;10308;42.688;23.256;2023-12-22T10:40:19;5.80;;;5.20;;
20298;SDS011;10308;42.688;23.256;2023-12-22T10:42:48;5.90;;;5.40;;
20298;SDS011;10308;42.688;23.256;2023-12-22T10:45:18;5.28;;;4.88;;
20298;SDS011;10308;42.688;23.256;2023-12-22T10:47:45;5.50;;;5.00;;
20298;SDS011;10308;42.688;23.256;2023-12-22T10:50:15;6.18;;;4.82;;
20298;SDS011;10308;42.688;23.256;2023-12-22T10:52:50;3.97;;;3.30;;
20298;SDS011;10308;42.688;23.256;2023-12-22T10:55:19;2.40;;;2.20;;
20298;SDS011;10308;42.688;23.256;2023-12-22T10:57:51;2.33;;;2.13;;
20298;SDS011;10308;42.688;23.256;2023-12-22T11:00:19;3.50;;;3.20;;
20298;SDS011;10308;42.688;23.256;2023-12-22T11:02:47;3.03;;;2.25;;
20298;SDS011;10308;42.688;23.256;2023-12-22T11:05:17;1.58;;;1.40;;
20298;SDS011;10308;42.688;23.256;2023-12-22T11:07:48;1.30;;;1.20;;
20298;SDS011;10308;42.688;23.256;2023-12-22T11:10:17;1.50;;;1.40;;
20298;SDS011;10308;42.688;23.256;2023-12-22T11:12:51;1.50;;;1.40;;
20298;SDS011;10308;42.688;23.256;2023-12-22T11:15:20;1.60;;;1.50;;
20298;SDS011;10308;42.688;23.256;2023-12-22T11:17:49;1.70;;;1.60;;
20298;SDS011;10308;42.688;23.256;2023-12-22T11:20:18;2.00;;;1.90;;
20298;SDS011;10308;42.688;23.256;2023-12-22T11:22:46;1.70;;;1.60;;
20298;SDS011;10308;42.688;23.256;2023-12-22T11:25:17;1.70;;;1.60;;
20298;SDS011;10308;42.688;23.256;2023-12-22T11:27:50;1.65;;;1.55;;
20298;SDS011;10308;42.688;23.256;2023-12-22T11:30:22;1.50;;;1.40;;
20298;SDS011;10308;42.688;23.256;2023-12-22T11:32:51;1.70;;;1.60;;
20298;SDS011;10308;42.688;23.256;2023-12-22T11:35:20;1.75;;;1.60;;
20298;SDS011;10308;42.688;23.256;2023-12-22T11:37:49;2.88;;;2.60;;
20298;SDS011;10308;42.688;23.256;2023-12-22T11:40:22;2.55;;;2.30;;
20298;SDS011;10308;42.688;23.256;2023-12-22T11:42:49;1.70;;;1.60;;
20298;SDS011;10308;42.688;23.256;2023-12-22T11:45:17;1.60;;;1.48;;
20298;SDS011;10308;42.688;23.256;2023-12-22T11:47:49;1.60;;;1.38;;
20298;SDS011;10308;42.688;23.256;2023-12-22T11:50:28;1.70;;;1.60;;
20298;SDS011;10308;42.688;23.256;2023-12-22T11:52:56;1.80;;;1.70;;
20298;SDS011;10308;42.688;23.256;2023-12-22T11:58:38;1.90;;;1.80;;
20298;SDS011;10308;42.688;23.256;2023-12-22T12:01:06;2.25;;;2.05;;
20298;SDS011;10308;42.688;23.256;2023-12-22T12:03:41;1.88;;;1.77;;
20298;SDS011;10308;42.688;23.256;2023-12-22T12:06:14;2.33;;;2.13;;
20298;SDS011;10308;42.688;23.256;2023-12-22T12:08:45;2.20;;;2.00;;
20298;SDS011;10308;42.688;23.256;2023-12-22T12:11:15;1.67;;;1.58;;
20298;SDS011;10308;42.688;23.256;2023-12-22T12:13:42;2.15;;;2.00;;
20298;SDS011;10308;42.688;23.256;2023-12-22T12:16:13;1.80;;;1.70;;
20298;SDS011;10308;42.688;23.256;2023-12-22T12:18:40;2.60;;;2.40;;
20298;SDS011;10308;42.688;23.256;2023-12-22T12:21:08;1.70;;;1.60;;
20298;SDS011;10308;42.688;23.256;2023-12-22T12:23:40;2.15;;;1.83;;
20298;SDS011;10308;42.688;23.256;2023-12-22T12:26:07;1.80;;;1.70;;
20298;SDS011;10308;42.688;23.256;2023-12-22T12:28:42;1.60;;;1.50;;
20298;SDS011;10308;42.688;23.256;2023-12-22T12:31:12;1.30;;;1.30;;
20298;SDS011;10308;42.688;23.256;2023-12-22T12:33:43;1.30;;;1.20;;
20298;SDS011;10308;42.688;23.256;2023-12-22T12:36:11;1.70;;;1.60;;
20298;SDS011;10308;42.688;23.256;2023-12-22T12:38:42;1.50;;;1.40;;
20298;SDS011;10308;42.688;23.256;2023-12-22T12:41:15;1.80;;;1.70;;
20298;SDS011;10308;42.688;23.256;2023-12-22T12:43:53;1.58;;;1.42;;
20298;SDS011;10308;42.688;23.256;2023-12-22T12:46:22;1.70;;;1.60;;
20298;SDS011;10308;42.688;23.256;2023-12-22T12:48:57;1.83;;;1.70;;
20298;SDS011;10308;42.688;23.256;2023-12-22T12:51:34;2.40;;;2.20;;
20298;SDS011;10308;42.688;23.256;2023-12-22T12:54:02;2.20;;;2.00;;
20298;SDS011;10308;42.688;23.256;2023-12-22T12:56:36;1.85;;;1.70;;
20298;SDS011;10308;42.688;23.256;2023-12-22T12:59:08;1.98;;;1.88;;
20298;SDS011;10308;42.688;23.256;2023-12-22T13:01:39;1.70;;;1.60;;
20298;SDS011;10308;42.688;23.256;2023-12-22T13:04:08;2.58;;;2.17;;
20298;SDS011;10308;42.688;23.256;2023-12-22T13:06:42;1.60;;;1.50;;
20298;SDS011;10308;42.688;23.256;2023-12-22T13:09:10;1.65;;;1.55;;
20298;SDS011;10308;42.688;23.256;2023-12-22T13:11:43;2.20;;;2.10;;
20298;SDS011;10308;42.688;23.256;2023-12-22T13:14:14;2.30;;;2.10;;
20298;SDS011;10308;42.688;23.256;2023-12-22T13:16:52;2.20;;;2.10;;
20298;SDS011;10308;42.688;23.256;2023-12-22T13:19:20;2.10;;;1.80;;
20298;SDS011;10308;42.688;23.256;2023-12-22T13:21:50;2.15;;;1.95;;
20298;SDS011;10308;42.688;23.256;2023-12-22T13:24:19;1.90;;;1.80;;
20298;SDS011;10308;42.688;23.256;2023-12-22T13:26:46;1.90;;;1.80;;
20298;SDS011;10308;42.688;23.256;2023-12-22T13:29:15;1.92;;;1.70;;
20298;SDS011;10308;42.688;23.256;2023-12-22T13:31:43;1.80;;;1.70;;
20298;SDS011;10308;42.688;23.256;2023-12-22T13:34:11;1.70;;;1.60;;
20298;SDS011;10308;42.688;23.256;2023-12-22T13:36:39;2.55;;;2.28;;
20298;SDS011;10308;42.688;23.256;2023-12-22T13:39:08;2.20;;;2.00;;
20298;SDS011;10308;42.688;23.256;2023-12-22T13:41:38;2.60;;;2.00;;
20298;SDS011;10308;42.688;23.256;2023-12-22T13:44:10;1.90;;;1.80;;
20298;SDS011;10308;42.688;23.256;2023-12-22T13:46:39;2.00;;;1.90;;
20298;SDS011;10308;42.688;23.256;2023-12-22T13:49:08;2.20;;;2.00;;
20298;SDS011;10308;42.688;23.256;2023-12-22T13:51:42;2.08;;;1.92;;
20298;SDS011;10308;42.688;23.256;2023-12-22T13:54:10;1.60;;;1.50;;
20298;SDS011;10308;42.688;23.256;2023-12-22T13:56:38;1.52;;;1.42;;
20298;SDS011;10308;42.688;23.256;2023-12-22T13:59:07;1.90;;;1.80;;
20298;SDS011;10308;42.688;23.256;2023-12-22T14:01:34;1.83;;;1.73;;
20298;SDS011;10308;42.688;23.256;2023-12-22T14:04:05;1.67;;;1.58;;
20298;SDS011;10308;42.688;23.256;2023-12-22T14:06:35;2.30;;;2.10;;
20298;SDS011;10308;42.688;23.256;2023-12-22T14:09:05;2.28;;;2.08;;
20298;SDS011;10308;42.688;23.256;2023-12-22T14:11:35;2.50;;;2.00;;
20298;SDS011;10308;42.688;23.256;2023-12-22T14:14:04;1.98;;;1.88;;
20298;SDS011;10308;42.688;23.256;2023-12-22T14:16:31;1.50;;;1.40;;
20298;SDS011;10308;42.688;23.256;2023-12-22T14:18:59;1.60;;;1.50;;
20298;SDS011;10308;42.688;23.256;2023-12-22T14:21:30;1.90;;;1.80;;
20298;SDS011;10308;42.688;23.256;2023-12-22T14:23:57;1.70;;;1.60;;
20298;SDS011;10308;42.688;23.256;2023-12-22T14:26:24;2.15;;;2.05;;
20298;SDS011;10308;42.688;23.256;2023-12-22T14:28:51;1.60;;;1.50;;
20298;SDS011;10308;42.688;23.256;2023-12-22T14:31:18;1.60;;;1.50;;
20298;SDS011;10308;42.688;23.256;2023-12-22T14:33:47;2.03;;;1.83;;